createdAt,value
2023-02-23T00:00:21.203Z,5.30
2023-02-23T00:01:27.629Z,5.29
2023-02-23T00:02:29.798Z,5.29
2023-02-23T00:03:34.625Z,5.28
2023-02-23T00:04:41.539Z,5.28
2023-02-23T00:05:45.476Z,5.27
2023-02-23T00:06:52.422Z,5.26
2023-02-23T00:07:55.071Z,5.26
2023-02-23T00:09:01.741Z,5.26
2023-02-23T00:10:06.169Z,5.26
2023-02-23T00:11:14.302Z,5.26
2023-02-23T00:12:20.853Z,5.24
2023-02-23T00:13:25.462Z,5.22
2023-02-23T00:14:31.999Z,5.21
2023-02-23T00:15:37.166Z,5.18
2023-02-23T00:16:47.073Z,5.15
2023-02-23T00:17:51.945Z,5.13
2023-02-23T00:19:00.561Z,5.10
2023-02-23T00:20:08.132Z,5.08
2023-02-23T00:21:15.392Z,5.06
2023-02-23T00:22:17.622Z,5.04
2023-02-23T00:23:22.946Z,5.01
2023-02-23T00:24:27.138Z,5.00
2023-02-23T00:25:32.824Z,4.99
2023-02-23T00:26:36.475Z,4.97
2023-02-23T00:27:44.506Z,4.94
2023-02-23T00:28:47.775Z,4.94
2023-02-23T00:29:52.561Z,4.94
2023-02-23T00:30:58.433Z,4.93
2023-02-23T00:32:05.639Z,4.94
2023-02-23T00:33:07.799Z,4.93
2023-02-23T00:34:15.614Z,4.94
2023-02-23T00:35:18.880Z,4.93
2023-02-23T00:36:25.738Z,4.93
2023-02-23T00:37:28.381Z,4.95
2023-02-23T00:38:35.146Z,4.94
2023-02-23T00:39:48.317Z,4.94
2023-02-23T00:40:53.695Z,4.94
2023-02-23T00:42:01.554Z,4.93
2023-02-23T00:43:13.192Z,4.93
2023-02-23T00:44:15.548Z,4.93
2023-02-23T00:45:20.735Z,4.94
2023-02-23T00:46:25.233Z,4.96
2023-02-23T00:47:30.418Z,4.99
2023-02-23T00:48:33.166Z,5.03
2023-02-23T00:49:38.537Z,5.05
2023-02-23T00:50:42.109Z,5.08
2023-02-23T00:51:47.138Z,5.12
2023-02-23T00:52:49.290Z,5.14
2023-02-23T00:53:57.304Z,5.19
2023-02-23T00:55:01.127Z,5.21
2023-02-23T00:56:08.972Z,5.25
2023-02-23T00:57:17.035Z,5.28
2023-02-23T00:58:25.757Z,5.33
2023-02-23T00:59:29.873Z,5.38
2023-02-23T01:00:42.320Z,5.42
2023-02-23T01:01:46.568Z,5.49
2023-02-23T01:02:57.346Z,5.49
2023-02-23T01:03:59.572Z,5.52
2023-02-23T01:05:04.253Z,5.55
2023-02-23T01:06:09.780Z,5.57
2023-02-23T01:07:14.699Z,5.60
2023-02-23T01:08:18.042Z,5.61
2023-02-23T01:09:29.622Z,5.63
2023-02-23T01:10:31.566Z,5.63
2023-02-23T01:11:36.203Z,5.67
2023-02-23T01:12:38.347Z,5.66
2023-02-23T01:13:47.551Z,5.68
2023-02-23T01:14:50.835Z,5.70
2023-02-23T01:15:55.838Z,5.70
2023-02-23T01:16:58.164Z,5.71
2023-02-23T01:18:03.050Z,5.72
2023-02-23T01:19:06.447Z,5.73
2023-02-23T01:20:16.083Z,5.76
2023-02-23T01:21:23.958Z,5.76
2023-02-23T01:22:26.583Z,5.77
2023-02-23T01:23:31.494Z,5.79
2023-02-23T01:24:49.186Z,5.79
2023-02-23T01:26:00.090Z,5.80
2023-02-23T01:27:02.420Z,5.82
2023-02-23T01:28:09.172Z,5.83
2023-02-23T01:29:15.412Z,5.84
2023-02-23T01:30:44.510Z,5.85
2023-02-23T01:31:52.537Z,5.86
2023-02-23T01:32:57.353Z,5.88
2023-02-23T01:34:03.585Z,5.88
2023-02-23T01:35:11.058Z,5.88
2023-02-23T01:36:13.973Z,5.90
2023-02-23T01:37:18.912Z,5.92
2023-02-23T01:38:20.997Z,5.94
2023-02-23T01:39:25.970Z,5.95
2023-02-23T01:40:31.469Z,5.97
2023-02-23T01:41:38.213Z,5.98
2023-02-23T01:42:42.216Z,5.98
2023-02-23T01:44:01.002Z,5.95
2023-02-23T01:45:24.638Z,5.92
2023-02-23T01:46:32.376Z,5.91
2023-02-23T01:47:35.362Z,5.93
2023-02-23T01:48:43.551Z,5.93
2023-02-23T01:49:45.913Z,5.93
2023-02-23T01:50:56.097Z,5.93
2023-02-23T01:52:02.824Z,5.94
2023-02-23T01:53:08.773Z,5.97
2023-02-23T01:54:17.574Z,5.97
2023-02-23T01:55:23.817Z,6.00
2023-02-23T01:56:33.051Z,6.00
2023-02-23T01:57:36.476Z,6.02
2023-02-23T01:58:57.090Z,6.02
2023-02-23T01:59:59.362Z,6.04
2023-02-23T02:01:08.694Z,6.05
2023-02-23T02:02:13.530Z,6.05
2023-02-23T02:03:24.099Z,6.05
2023-02-23T02:04:27.354Z,6.04
2023-02-23T02:05:33.453Z,6.04
2023-02-23T02:06:39.549Z,6.10
2023-02-23T02:07:49.332Z,6.11
2023-02-23T02:08:55.312Z,6.13
2023-02-23T02:10:14.235Z,6.13
2023-02-23T02:11:31.093Z,6.13
2023-02-23T02:12:34.089Z,6.13
2023-02-23T02:13:40.937Z,6.13
2023-02-23T02:14:45.852Z,6.13
2023-02-23T02:16:19.653Z,6.14
2023-02-23T02:17:31.589Z,6.13
2023-02-23T02:18:44.417Z,6.13
2023-02-23T02:20:37.406Z,6.13
2023-02-23T02:21:51.942Z,6.11
2023-02-23T02:23:19.923Z,6.11
2023-02-23T02:24:54.317Z,6.10
2023-02-23T02:26:09.990Z,6.12
2023-02-23T02:27:26.949Z,6.14
2023-02-23T02:29:11.950Z,6.13
2023-02-23T02:30:44.023Z,6.18
2023-02-23T02:32:45.459Z,6.24
2023-02-23T02:34:16.102Z,6.20
2023-02-23T02:35:48.458Z,6.18
2023-02-23T02:37:23.178Z,6.16
2023-02-23T02:38:50.722Z,6.15
2023-02-23T02:40:16.573Z,6.14
2023-02-23T02:41:35.488Z,6.14
2023-02-23T02:42:47.119Z,6.11
2023-02-23T02:44:19.648Z,6.12
2023-02-23T02:45:27.396Z,6.09
2023-02-23T02:46:38.069Z,6.09
2023-02-23T02:47:46.455Z,6.08
2023-02-23T02:49:00.759Z,6.05
2023-02-23T02:50:10.383Z,6.06
2023-02-23T02:51:24.112Z,6.07
2023-02-23T02:52:30.766Z,6.04
2023-02-23T02:53:44.640Z,6.03
2023-02-23T02:54:53.469Z,6.06
2023-02-23T02:56:00.924Z,6.04
2023-02-23T02:57:04.652Z,6.04
2023-02-23T02:58:11.540Z,6.03
2023-02-23T02:59:31.809Z,6.01
2023-02-23T03:00:53.751Z,6.00
2023-02-23T03:02:16.023Z,5.99
2023-02-23T03:03:52.316Z,6.00
2023-02-23T03:05:14.901Z,5.98
2023-02-23T03:06:35.367Z,5.96
2023-02-23T03:08:00.753Z,5.96
2023-02-23T03:09:31.370Z,5.94
2023-02-23T03:10:57.205Z,5.92
2023-02-23T03:12:22.996Z,5.91
2023-02-23T03:13:53.936Z,5.90
2023-02-23T03:15:23.955Z,5.88
2023-02-23T03:17:02.784Z,5.87
2023-02-23T03:18:34.089Z,5.88
2023-02-23T03:19:56.541Z,5.89
2023-02-23T03:21:21.146Z,5.87
2023-02-23T03:22:43.656Z,5.84
2023-02-23T03:24:10.872Z,5.81
2023-02-23T03:25:39.717Z,5.78
2023-02-23T03:27:01.907Z,5.78
2023-02-23T03:28:28.117Z,5.76
2023-02-23T03:29:52.309Z,5.75
2023-02-23T03:31:20.441Z,5.73
2023-02-23T03:32:44.832Z,5.72
2023-02-23T03:34:10.260Z,5.77
2023-02-23T03:35:36.463Z,5.76
2023-02-23T03:36:58.880Z,5.76
2023-02-23T03:38:21.080Z,5.75
2023-02-23T03:39:45.888Z,5.75
2023-02-23T03:41:09.216Z,5.77
2023-02-23T03:42:31.553Z,5.76
2023-02-23T03:43:52.633Z,5.76
2023-02-23T03:45:11.404Z,5.74
2023-02-23T03:46:32.440Z,5.74
2023-02-23T03:47:52.618Z,5.74
2023-02-23T03:49:12.596Z,5.74
2023-02-23T03:50:37.427Z,5.73
2023-02-23T03:51:56.777Z,5.72
2023-02-23T03:53:18.822Z,5.73
2023-02-23T03:54:42.746Z,5.73
2023-02-23T03:56:09.150Z,5.73
2023-02-23T03:57:32.404Z,5.71
2023-02-23T03:58:56.259Z,5.74
2023-02-23T04:00:18.613Z,5.73
2023-02-23T04:01:39.724Z,5.72
2023-02-23T04:02:58.332Z,5.74
2023-02-23T04:04:18.651Z,5.74
2023-02-23T04:05:39.234Z,5.73
2023-02-23T04:07:00.931Z,5.74
2023-02-23T04:08:21.553Z,5.74
2023-02-23T04:09:39.029Z,5.74
2023-02-23T04:11:03.792Z,5.73
2023-02-23T04:12:31.895Z,5.74
2023-02-23T04:13:37.743Z,5.74
2023-02-23T04:14:50.139Z,5.75
2023-02-23T04:15:55.414Z,5.75
2023-02-23T04:16:58.355Z,5.76
2023-02-23T04:18:03.870Z,5.77
2023-02-23T04:19:08.403Z,5.76
2023-02-23T04:20:17.510Z,5.77
2023-02-23T04:21:20.241Z,5.79
2023-02-23T04:22:26.641Z,5.77
2023-02-23T04:23:29.817Z,5.78
2023-02-23T04:24:34.681Z,5.78
2023-02-23T04:25:36.916Z,5.79
2023-02-23T04:26:41.724Z,5.79
2023-02-23T04:27:52.726Z,5.80
2023-02-23T04:28:58.842Z,5.80
2023-02-23T04:30:12.428Z,5.80
2023-02-23T04:31:19.176Z,5.81
2023-02-23T04:32:21.781Z,5.81
2023-02-23T04:33:27.659Z,5.81
2023-02-23T04:34:29.945Z,5.82
2023-02-23T04:35:37.585Z,5.82
2023-02-23T04:36:53.008Z,5.81
2023-02-23T04:37:56.532Z,5.81
2023-02-23T04:39:01.456Z,5.80
2023-02-23T04:40:04.121Z,5.79
2023-02-23T04:41:10.882Z,5.80
2023-02-23T04:42:13.246Z,5.79
2023-02-23T04:43:23.001Z,5.79
2023-02-23T04:44:27.350Z,5.79
2023-02-23T04:45:33.640Z,5.79
2023-02-23T04:46:35.993Z,5.78
2023-02-23T04:47:41.226Z,5.80
2023-02-23T04:48:44.785Z,5.79
2023-02-23T04:49:54.545Z,5.80
2023-02-23T04:50:56.839Z,5.80
2023-02-23T04:52:02.052Z,5.81
2023-02-23T04:53:04.569Z,5.79
2023-02-23T04:54:10.461Z,5.78
2023-02-23T04:55:17.958Z,5.80
2023-02-23T04:56:24.419Z,5.79
2023-02-23T04:57:31.587Z,5.80
2023-02-23T04:58:39.262Z,5.81
2023-02-23T04:59:43.172Z,5.79
2023-02-23T05:00:53.515Z,5.80
2023-02-23T05:01:58.154Z,5.79
2023-02-23T05:03:09.191Z,5.80
2023-02-23T05:04:13.416Z,5.81
2023-02-23T05:05:18.531Z,5.83
2023-02-23T05:06:21.247Z,5.83
2023-02-23T05:07:26.077Z,5.82
2023-02-23T05:08:28.428Z,5.83
2023-02-23T05:09:35.524Z,5.84
2023-02-23T05:10:40.077Z,5.85
2023-02-23T05:11:45.401Z,5.86
2023-02-23T05:12:47.771Z,5.86
2023-02-23T05:13:55.177Z,5.85
2023-02-23T05:14:57.935Z,5.83
2023-02-23T05:16:03.188Z,5.83
2023-02-23T05:17:06.662Z,5.79
2023-02-23T05:18:13.147Z,5.84
2023-02-23T05:19:15.387Z,5.84
2023-02-23T05:20:20.262Z,5.86
2023-02-23T05:21:22.390Z,5.87
2023-02-23T05:22:27.314Z,5.85
2023-02-23T05:23:29.641Z,5.86
2023-02-23T05:24:35.941Z,5.88
2023-02-23T05:25:39.016Z,5.93
2023-02-23T05:26:44.100Z,5.91
2023-02-23T05:27:46.288Z,5.91
2023-02-23T05:28:57.159Z,5.92
2023-02-23T05:29:59.822Z,5.94
2023-02-23T05:31:06.515Z,5.95
2023-02-23T05:32:08.989Z,5.99
2023-02-23T05:33:15.445Z,6.01
2023-02-23T05:34:20.039Z,6.01
2023-02-23T05:35:26.952Z,6.01
2023-02-23T05:36:30.839Z,5.99
2023-02-23T05:37:35.785Z,5.97
2023-02-23T05:38:38.626Z,5.97
2023-02-23T05:39:43.604Z,5.96
2023-02-23T05:40:45.886Z,5.96
2023-02-23T05:41:50.922Z,5.98
2023-02-23T05:42:58.558Z,5.96
2023-02-23T05:44:05.962Z,5.96
2023-02-23T05:45:08.878Z,5.98
2023-02-23T05:46:16.153Z,5.99
2023-02-23T05:47:18.489Z,5.97
2023-02-23T05:48:23.733Z,5.97
2023-02-23T05:49:27.116Z,5.98
2023-02-23T05:50:33.450Z,5.98
2023-02-23T05:51:36.003Z,5.97
2023-02-23T05:52:42.329Z,5.99
2023-02-23T05:53:45.065Z,5.97
2023-02-23T05:54:49.976Z,5.99
2023-02-23T05:55:53.460Z,5.99
2023-02-23T05:56:59.781Z,6.00
2023-02-23T05:58:03.171Z,6.02
2023-02-23T05:59:12.226Z,6.01
2023-02-23T06:00:15.111Z,6.01
2023-02-23T06:01:21.131Z,6.01
2023-02-23T06:02:26.193Z,6.02
2023-02-23T06:03:28.313Z,6.03
2023-02-23T06:04:33.129Z,6.02
2023-02-23T06:05:35.276Z,6.01
2023-02-23T06:06:40.164Z,5.99
2023-02-23T06:07:42.451Z,6.01
2023-02-23T06:08:48.130Z,5.98
2023-02-23T06:09:50.420Z,5.99
2023-02-23T06:10:58.149Z,5.98
2023-02-23T06:12:01.239Z,5.97
2023-02-23T06:13:06.085Z,5.97
2023-02-23T06:14:14.340Z,5.95
2023-02-23T06:15:20.340Z,5.95
2023-02-23T06:16:24.843Z,5.96
2023-02-23T06:17:31.051Z,6.01
2023-02-23T06:18:35.282Z,6.00
2023-02-23T06:19:40.157Z,5.98
2023-02-23T06:20:43.699Z,5.97
2023-02-23T06:21:48.598Z,5.97
2023-02-23T06:22:51.016Z,5.97
2023-02-23T06:24:01.057Z,5.97
2023-02-23T06:25:06.261Z,5.97
2023-02-23T06:26:11.602Z,5.98
2023-02-23T06:27:14.372Z,5.97
2023-02-23T06:28:19.446Z,6.00
2023-02-23T06:29:26.593Z,6.01
2023-02-23T06:30:33.818Z,6.01
2023-02-23T06:31:39.020Z,6.03
2023-02-23T06:32:42.531Z,6.04
2023-02-23T06:33:47.729Z,6.04
2023-02-23T06:34:49.974Z,6.10
2023-02-23T06:35:55.912Z,6.09
2023-02-23T06:36:58.374Z,6.09
2023-02-23T06:38:06.430Z,6.09
2023-02-23T06:39:13.729Z,6.09
2023-02-23T06:40:33.639Z,6.09
2023-02-23T06:41:38.747Z,6.11
2023-02-23T06:43:23.147Z,6.11
2023-02-23T06:44:28.264Z,6.12
2023-02-23T06:45:33.052Z,6.15
2023-02-23T06:46:36.320Z,6.15
2023-02-23T06:47:41.306Z,6.15
2023-02-23T06:48:59.824Z,6.17
2023-02-23T06:50:04.145Z,6.16
2023-02-23T06:51:10.050Z,6.18
2023-02-23T06:52:13.783Z,6.22
2023-02-23T06:53:18.579Z,6.25
2023-02-23T06:54:20.790Z,6.24
2023-02-23T06:55:25.744Z,6.22
2023-02-23T06:56:29.297Z,6.23
2023-02-23T06:57:34.315Z,6.24
2023-02-23T06:58:39.221Z,6.23
2023-02-23T06:59:44.354Z,6.26
2023-02-23T07:00:49.299Z,6.26
2023-02-23T07:01:55.495Z,6.30
2023-02-23T07:03:01.491Z,6.31
2023-02-23T07:04:05.447Z,6.33
2023-02-23T07:05:12.554Z,6.33
2023-02-23T07:06:14.983Z,6.37
2023-02-23T07:07:22.398Z,6.37
2023-02-23T07:08:24.663Z,6.39
2023-02-23T07:09:30.705Z,6.41
2023-02-23T07:10:36.661Z,6.40
2023-02-23T07:11:43.390Z,6.43
2023-02-23T07:12:48.336Z,6.45
2023-02-23T07:13:55.819Z,6.49
2023-02-23T07:16:07.486Z,6.44
2023-02-23T07:17:12.727Z,6.43
2023-02-23T07:18:18.122Z,6.39
2023-02-23T07:19:20.435Z,6.37
2023-02-23T07:20:27.342Z,6.41
2023-02-23T07:21:29.509Z,6.44
2023-02-23T07:22:34.579Z,6.41
2023-02-23T07:23:38.017Z,6.46
2023-02-23T07:24:43.058Z,6.44
2023-02-23T07:25:50.105Z,6.44
2023-02-23T07:26:55.064Z,6.55
2023-02-23T07:27:59.301Z,6.57
2023-02-23T07:29:05.332Z,6.64
2023-02-23T07:30:09.479Z,6.71
2023-02-23T07:31:17.286Z,6.77
2023-02-23T07:32:21.751Z,6.79
2023-02-23T07:33:26.871Z,6.77
2023-02-23T07:34:29.424Z,6.82
2023-02-23T07:35:34.387Z,6.79
2023-02-23T07:36:37.487Z,6.76
2023-02-23T07:37:42.345Z,6.78
2023-02-23T07:38:44.465Z,6.82
2023-02-23T07:39:50.948Z,6.73
2023-02-23T07:40:54.740Z,6.72
2023-02-23T07:42:00.708Z,6.65
2023-02-23T07:43:24.003Z,6.67
2023-02-23T07:44:29.062Z,6.67
2023-02-23T07:45:31.537Z,6.71
2023-02-23T07:46:39.168Z,6.89
2023-02-23T07:47:41.602Z,6.87
2023-02-23T07:48:47.842Z,6.80
2023-02-23T07:49:51.229Z,6.79
2023-02-23T07:50:56.758Z,6.79
2023-02-23T07:52:00.235Z,6.78
2023-02-23T07:53:05.320Z,6.81
2023-02-23T07:54:09.459Z,6.81
2023-02-23T07:55:15.417Z,6.82
2023-02-23T07:56:26.393Z,6.86
2023-02-23T07:57:32.929Z,7.08
2023-02-23T07:58:36.761Z,7.09
2023-02-23T07:59:43.695Z,7.01
2023-02-23T08:00:46.105Z,7.02
2023-02-23T08:01:54.035Z,7.20
2023-02-23T08:03:00.333Z,7.11
2023-02-23T08:04:02.844Z,7.13
2023-02-23T08:05:08.728Z,7.12
2023-02-23T08:06:10.763Z,7.08
2023-02-23T08:07:15.686Z,7.15
2023-02-23T08:08:17.892Z,7.25
2023-02-23T08:09:24.545Z,7.28
2023-02-23T08:10:27.062Z,7.31
2023-02-23T08:11:32.110Z,7.28
2023-02-23T08:12:37.680Z,7.18
2023-02-23T08:13:40.250Z,7.16
2023-02-23T08:14:45.214Z,7.14
2023-02-23T08:15:48.753Z,7.15
2023-02-23T08:16:56.964Z,7.07
2023-02-23T08:17:59.300Z,7.27
2023-02-23T08:19:07.417Z,7.35
2023-02-23T08:20:11.241Z,7.38
2023-02-23T08:21:16.119Z,7.52
2023-02-23T08:22:48.743Z,7.56
2023-02-23T08:23:46.340Z,7.49
2023-02-23T08:24:52.301Z,7.52
2023-02-23T08:25:56.163Z,7.57
2023-02-23T08:27:01.372Z,7.33
2023-02-23T08:28:07.081Z,7.29
2023-02-23T08:29:12.530Z,7.23
2023-02-23T08:30:28.326Z,7.34
2023-02-23T08:31:35.375Z,7.31
2023-02-23T08:32:40.847Z,7.27
2023-02-23T08:33:45.879Z,7.20
2023-02-23T08:34:54.426Z,7.19
2023-02-23T08:36:03.392Z,7.15
2023-02-23T08:37:06.979Z,7.10
2023-02-23T08:38:12.142Z,7.23
2023-02-23T08:39:17.075Z,7.29
2023-02-23T08:40:20.925Z,7.44
2023-02-23T08:41:27.743Z,7.34
2023-02-23T08:42:32.604Z,7.43
2023-02-23T08:43:39.419Z,7.33
2023-02-23T08:44:45.251Z,7.37
2023-02-23T08:45:48.621Z,7.42
2023-02-23T08:46:54.054Z,7.47
2023-02-23T08:47:58.806Z,7.59
2023-02-23T08:49:05.937Z,7.61
2023-02-23T08:50:11.097Z,7.71
2023-02-23T08:51:17.386Z,7.49
2023-02-23T08:52:19.692Z,7.56
2023-02-23T08:53:25.852Z,7.50
2023-02-23T08:54:30.974Z,7.43
2023-02-23T08:55:39.747Z,7.45
2023-02-23T08:56:46.637Z,7.57
2023-02-23T08:57:48.805Z,7.68
2023-02-23T08:58:54.598Z,7.61
2023-02-23T08:59:56.676Z,7.50
2023-02-23T09:01:02.162Z,7.60
2023-02-23T09:02:07.468Z,7.69
2023-02-23T09:03:14.925Z,7.71
2023-02-23T09:04:18.432Z,7.59
2023-02-23T09:05:24.859Z,7.73
2023-02-23T09:06:28.455Z,7.74
2023-02-23T09:07:33.340Z,7.98
2023-02-23T09:08:39.104Z,8.15
2023-02-23T09:09:41.323Z,8.27
2023-02-23T09:10:48.183Z,8.40
2023-02-23T09:11:53.426Z,8.48
2023-02-23T09:12:56.046Z,8.35
2023-02-23T09:14:05.306Z,8.26
2023-02-23T09:15:08.996Z,7.93
2023-02-23T09:16:15.174Z,7.91
2023-02-23T09:17:18.121Z,7.97
2023-02-23T09:18:29.882Z,7.81
2023-02-23T09:19:37.146Z,7.78
2023-02-23T09:20:45.337Z,7.67
2023-02-23T09:21:47.846Z,7.58
2023-02-23T09:22:55.535Z,7.63
2023-02-23T09:24:06.491Z,7.57
2023-02-23T09:25:11.354Z,7.67
2023-02-23T09:26:18.340Z,7.62
2023-02-23T09:27:22.732Z,7.66
2023-02-23T09:28:32.161Z,7.60
2023-02-23T09:29:41.774Z,7.72
2023-02-23T09:30:48.731Z,7.72
2023-02-23T09:31:57.777Z,7.73
2023-02-23T09:33:03.269Z,7.86
2023-02-23T09:34:10.958Z,7.76
2023-02-23T09:35:16.632Z,7.97
2023-02-23T09:36:24.197Z,7.89
2023-02-23T09:37:27.666Z,8.12
2023-02-23T09:38:34.302Z,7.92
2023-02-23T09:39:38.926Z,7.99
2023-02-23T09:40:50.553Z,7.97
2023-02-23T09:42:10.750Z,8.04
2023-02-23T09:43:16.612Z,7.96
2023-02-23T09:44:32.779Z,7.98
2023-02-23T09:45:46.717Z,8.23
2023-02-23T09:46:59.726Z,8.33
2023-02-23T09:48:18.355Z,8.49
2023-02-23T09:49:26.475Z,8.61
2023-02-23T09:50:35.089Z,8.80
2023-02-23T09:51:56.764Z,8.65
2023-02-23T09:53:07.581Z,8.91
2023-02-23T09:54:16.286Z,8.87
2023-02-23T09:55:18.826Z,9.12
2023-02-23T09:56:36.877Z,9.34
2023-02-23T09:57:48.085Z,9.59
2023-02-23T09:58:53.507Z,9.48
2023-02-23T09:59:57.289Z,9.51
2023-02-23T10:01:38.703Z,9.48
2023-02-23T10:03:02.648Z,9.71
2023-02-23T10:04:21.814Z,9.85
2023-02-23T10:05:33.265Z,9.51
2023-02-23T10:06:37.808Z,9.08
2023-02-23T10:07:49.243Z,9.23
2023-02-23T10:09:08.858Z,9.52
2023-02-23T10:10:28.245Z,9.46
2023-02-23T10:11:43.592Z,9.33
2023-02-23T10:12:57.389Z,9.53
2023-02-23T10:14:15.954Z,9.65
2023-02-23T10:15:30.843Z,9.85
2023-02-23T10:16:47.982Z,9.83
2023-02-23T10:18:06.425Z,9.36
2023-02-23T10:19:23.211Z,9.36
2023-02-23T10:20:44.468Z,9.14
2023-02-23T10:21:57.404Z,9.12
2023-02-23T10:23:14.513Z,9.26
2023-02-23T10:24:25.575Z,9.25
2023-02-23T10:25:35.862Z,9.19
2023-02-23T10:26:47.529Z,9.17
2023-02-23T10:27:52.802Z,9.14
2023-02-23T10:29:00.438Z,9.29
2023-02-23T10:30:05.588Z,9.31
2023-02-23T10:31:31.398Z,9.39
2023-02-23T10:32:43.542Z,9.77
2023-02-23T10:33:46.607Z,9.76
2023-02-23T10:34:56.761Z,9.94
2023-02-23T10:36:16.892Z,10.14
2023-02-23T10:37:27.495Z,10.12
2023-02-23T10:38:33.439Z,10.52
2023-02-23T10:39:44.350Z,10.94
2023-02-23T10:40:51.561Z,11.08
2023-02-23T10:41:57.361Z,11.42
2023-02-23T10:43:01.970Z,11.32
2023-02-23T10:44:17.204Z,11.65
2023-02-23T10:45:25.881Z,11.68
2023-02-23T10:46:41.645Z,11.38
2023-02-23T10:47:46.846Z,11.71
2023-02-23T10:48:55.874Z,11.71
2023-02-23T10:50:01.049Z,11.86
2023-02-23T10:51:19.909Z,11.82
2023-02-23T10:52:32.702Z,12.18
2023-02-23T10:53:40.401Z,12.54
2023-02-23T10:54:49.823Z,12.87
2023-02-23T10:56:06.036Z,12.93
2023-02-23T10:57:08.929Z,12.60
2023-02-23T10:58:19.872Z,12.72
2023-02-23T10:59:22.453Z,13.10
2023-02-23T11:00:33.349Z,13.70
2023-02-23T11:01:49.150Z,14.09
2023-02-23T11:03:01.987Z,14.76
2023-02-23T11:04:19.240Z,14.87
2023-02-23T11:05:42.055Z,15.39
2023-02-23T11:06:48.924Z,14.46
2023-02-23T11:07:57.057Z,13.92
2023-02-23T11:09:41.347Z,14.06
2023-02-23T11:11:20.869Z,13.78
2023-02-23T11:12:29.862Z,14.06
2023-02-23T11:13:40.347Z,14.20
2023-02-23T11:14:46.745Z,13.83
2023-02-23T11:15:51.070Z,14.29
2023-02-23T11:16:56.381Z,14.30
2023-02-23T11:18:01.885Z,13.83
2023-02-23T11:19:09.561Z,13.36
2023-02-23T11:20:25.171Z,13.63
2023-02-23T11:21:33.769Z,13.22
2023-02-23T11:22:43.587Z,13.32
2023-02-23T11:23:48.670Z,12.95
2023-02-23T11:24:52.430Z,13.57
2023-02-23T11:26:00.246Z,13.21
2023-02-23T11:27:08.782Z,13.28
2023-02-23T11:28:20.995Z,13.66
2023-02-23T11:29:35.386Z,13.96
2023-02-23T11:30:43.219Z,14.09
2023-02-23T11:31:54.302Z,12.87
2023-02-23T11:32:59.099Z,13.06
2023-02-23T11:34:06.011Z,12.81
2023-02-23T11:35:15.526Z,12.14
2023-02-23T11:36:29.288Z,12.40
2023-02-23T11:37:36.636Z,12.27
2023-02-23T11:38:41.896Z,12.45
2023-02-23T11:39:55.186Z,12.62
2023-02-23T11:41:01.939Z,12.99
2023-02-23T11:42:21.331Z,13.41
2023-02-23T11:43:23.525Z,13.64
2023-02-23T11:44:28.497Z,13.93
2023-02-23T11:45:34.630Z,13.34
2023-02-23T11:46:52.705Z,13.01
2023-02-23T11:48:02.431Z,13.10
2023-02-23T11:49:07.869Z,12.68
2023-02-23T11:50:25.769Z,12.40
2023-02-23T11:51:40.391Z,12.28
2023-02-23T11:52:46.946Z,12.24
2023-02-23T11:53:52.589Z,12.34
2023-02-23T11:55:02.887Z,12.43
2023-02-23T11:56:12.791Z,12.66
2023-02-23T11:57:26.015Z,12.55
2023-02-23T11:58:40.135Z,12.52
2023-02-23T11:59:45.810Z,12.88
2023-02-23T12:00:59.560Z,12.81
2023-02-23T12:02:25.183Z,13.05
2023-02-23T12:03:30.764Z,12.85
2023-02-23T12:04:38.220Z,12.49
2023-02-23T12:05:52.089Z,12.53
2023-02-23T12:07:00.562Z,12.73
2023-02-23T12:08:11.179Z,12.99
2023-02-23T12:09:23.549Z,13.39
2023-02-23T12:10:32.712Z,13.62
2023-02-23T12:11:44.113Z,13.99
2023-02-23T12:12:57.693Z,13.72
2023-02-23T12:14:10.757Z,13.36
2023-02-23T12:15:21.926Z,12.85
2023-02-23T12:16:31.503Z,12.40
2023-02-23T12:17:40.363Z,12.51
2023-02-23T12:18:53.686Z,12.41
2023-02-23T12:20:08.728Z,12.36
2023-02-23T12:21:28.022Z,13.01
2023-02-23T12:22:43.592Z,13.61
2023-02-23T12:23:53.023Z,13.83
2023-02-23T12:25:09.736Z,13.68
2023-02-23T12:26:20.828Z,13.04
2023-02-23T12:27:33.289Z,13.14
2023-02-23T12:28:44.663Z,13.53
2023-02-23T12:30:09.112Z,13.56
2023-02-23T12:31:29.245Z,14.05
2023-02-23T12:32:45.124Z,14.28
2023-02-23T12:33:54.938Z,14.36
2023-02-23T12:35:13.680Z,14.64
2023-02-23T12:36:31.578Z,14.60
2023-02-23T12:37:42.440Z,14.90
2023-02-23T12:38:54.835Z,14.68
2023-02-23T12:40:14.115Z,14.54
2023-02-23T12:41:26.403Z,14.01
2023-02-23T12:42:40.741Z,14.05
2023-02-23T12:43:52.252Z,14.34
2023-02-23T12:44:57.680Z,14.55
2023-02-23T12:46:10.616Z,14.62
2023-02-23T12:47:30.469Z,14.38
2023-02-23T12:48:47.118Z,14.38
2023-02-23T12:50:00.582Z,14.18
2023-02-23T12:51:11.195Z,14.21
2023-02-23T12:52:22.610Z,13.57
2023-02-23T12:53:35.088Z,13.93
2023-02-23T12:54:40.719Z,14.02
2023-02-23T12:55:58.839Z,13.90
2023-02-23T12:57:17.077Z,13.98
2023-02-23T12:58:32.469Z,13.74
2023-02-23T13:00:03.784Z,12.87
2023-02-23T13:01:14.848Z,13.38
2023-02-23T13:02:28.542Z,13.56
2023-02-23T13:03:59.104Z,13.83
2023-02-23T13:05:13.639Z,13.15
2023-02-23T13:06:30.585Z,13.03
2023-02-23T13:07:45.047Z,13.07
2023-02-23T13:09:06.176Z,13.41
2023-02-23T13:10:23.213Z,13.73
2023-02-23T13:11:49.328Z,14.06
2023-02-23T13:13:05.295Z,14.41
2023-02-23T13:14:19.457Z,14.50
2023-02-23T13:15:31.953Z,14.26
2023-02-23T13:16:41.712Z,14.32
2023-02-23T13:17:52.551Z,14.55
2023-02-23T13:19:22.440Z,14.66
2023-02-23T13:20:33.866Z,13.95
2023-02-23T13:21:44.970Z,13.66
2023-02-23T13:22:55.530Z,13.34
2023-02-23T13:24:12.124Z,13.37
2023-02-23T13:25:29.025Z,12.97
2023-02-23T13:26:55.808Z,12.87
2023-02-23T13:28:10.014Z,13.48
2023-02-23T13:29:31.239Z,14.05
2023-02-23T13:30:38.170Z,14.10
2023-02-23T13:31:53.911Z,13.44
2023-02-23T13:33:04.270Z,13.04
2023-02-23T13:34:11.924Z,12.72
2023-02-23T13:35:20.633Z,12.62
2023-02-23T13:37:30.905Z,12.65
2023-02-23T13:38:44.484Z,12.94
2023-02-23T13:40:02.519Z,13.07
2023-02-23T13:41:18.041Z,12.67
2023-02-23T13:42:45.132Z,13.11
2023-02-23T13:43:56.102Z,13.49
2023-02-23T13:45:12.677Z,13.37
2023-02-23T13:46:31.723Z,13.66
2023-02-23T13:47:46.284Z,13.27
2023-02-23T13:49:02.136Z,13.04
2023-02-23T13:50:17.576Z,13.10
2023-02-23T13:51:31.350Z,13.28
2023-02-23T13:52:40.045Z,13.46
2023-02-23T13:53:48.061Z,13.61
2023-02-23T13:54:57.190Z,13.71
2023-02-23T13:56:04.319Z,13.58
2023-02-23T13:57:18.390Z,13.39
2023-02-23T13:58:28.122Z,13.50
2023-02-23T13:59:39.895Z,13.49
2023-02-23T14:00:44.564Z,13.73
2023-02-23T14:01:53.438Z,13.79
2023-02-23T14:02:56.521Z,13.91
2023-02-23T14:04:04.838Z,14.02
2023-02-23T14:05:22.416Z,13.96
2023-02-23T14:06:30.778Z,14.19
2023-02-23T14:07:41.956Z,14.40
2023-02-23T14:08:50.462Z,14.15
2023-02-23T14:10:02.227Z,14.47
2023-02-23T14:11:06.354Z,14.63
2023-02-23T14:12:23.253Z,14.87
2023-02-23T14:13:32.466Z,15.01
2023-02-23T14:14:52.817Z,14.95
2023-02-23T14:16:25.102Z,15.22
2023-02-23T14:17:44.445Z,15.49
2023-02-23T14:19:06.273Z,15.93
2023-02-23T14:20:38.551Z,15.95
2023-02-23T14:21:52.982Z,15.60
2023-02-23T14:23:27.447Z,15.36
2023-02-23T14:24:32.844Z,15.09
2023-02-23T14:25:49.015Z,14.97
2023-02-23T14:27:39.767Z,14.49
2023-02-23T14:28:53.823Z,13.58
2023-02-23T14:30:25.628Z,13.48
2023-02-23T14:31:36.486Z,13.48
2023-02-23T14:32:45.663Z,13.42
2023-02-23T14:33:57.076Z,13.46
2023-02-23T14:35:05.994Z,12.87
2023-02-23T14:36:37.008Z,13.06
2023-02-23T14:37:44.068Z,12.86
2023-02-23T14:38:48.417Z,12.94
2023-02-23T14:39:54.976Z,12.96
2023-02-23T14:40:57.685Z,12.88
2023-02-23T14:42:03.358Z,13.00
2023-02-23T14:43:39.301Z,13.07
2023-02-23T14:44:51.668Z,13.15
2023-02-23T14:45:58.325Z,13.19
2023-02-23T14:47:06.111Z,12.99
2023-02-23T14:48:15.952Z,13.12
2023-02-23T14:49:28.313Z,13.30
2023-02-23T14:50:36.451Z,13.28
2023-02-23T14:51:45.170Z,13.20
2023-02-23T14:52:51.751Z,13.29
2023-02-23T14:53:58.556Z,13.31
2023-02-23T14:55:21.110Z,13.30
2023-02-23T14:56:38.719Z,13.10
2023-02-23T14:57:48.242Z,13.16
2023-02-23T14:58:52.092Z,13.29
2023-02-23T15:00:08.036Z,13.31
2023-02-23T15:01:13.005Z,13.19
2023-02-23T15:02:22.316Z,13.15
2023-02-23T15:03:27.475Z,13.17
2023-02-23T15:04:31.654Z,12.85
2023-02-23T15:05:41.397Z,12.89
2023-02-23T15:06:50.899Z,13.04
2023-02-23T15:07:58.603Z,13.06
2023-02-23T15:09:02.837Z,12.90
2023-02-23T15:10:14.051Z,13.02
2023-02-23T15:11:17.868Z,13.03
2023-02-23T15:12:28.447Z,12.86
2023-02-23T15:13:33.453Z,12.89
2023-02-23T15:14:41.328Z,13.03
2023-02-23T15:15:48.547Z,12.99
2023-02-23T15:16:58.236Z,13.12
2023-02-23T15:18:18.808Z,13.24
2023-02-23T15:19:40.813Z,13.27
2023-02-23T15:20:46.764Z,13.26
2023-02-23T15:21:54.081Z,13.28
2023-02-23T15:23:00.212Z,13.32
2023-02-23T15:24:13.478Z,12.91
2023-02-23T15:25:21.204Z,12.87
2023-02-23T15:26:32.195Z,12.85
2023-02-23T15:27:44.258Z,12.81